sensor_id;sensor_type;location;lat;lon;timestamp;pressure;altitude;pressure_sealevel;temperature;humidity
64602;BME280;51013;42.630;23.192;2022-10-31T00:00:44;92486.59;;;6.07;83.48
64602;BME280;51013;42.630;23.192;2022-10-31T00:03:23;92515.63;;;6.14;83.48
64602;BME280;51013;42.630;23.192;2022-10-31T00:12:45;92879.19;;;8.45;84.68
64602;BME280;51013;42.630;23.192;2022-10-31T00:15:15;92519.19;;;5.87;84.89
64602;BME280;51013;42.630;23.192;2022-10-31T00:17:42;92495.88;;;5.91;84.93
64602;BME280;51013;42.630;23.192;2022-10-31T00:20:12;92887.81;;;8.54;84.81
64602;BME280;51013;42.630;23.192;2022-10-31T00:22:40;92732.19;;;7.55;84.54
64602;BME280;51013;42.630;23.192;2022-10-31T00:25:08;92657.16;;;7.04;84.32
64602;BME280;51013;42.630;23.192;2022-10-31T00:27:36;92506.31;;;5.91;83.72
64602;BME280;51013;42.630;23.192;2022-10-31T00:30:04;92520.47;;;5.98;83.87
64602;BME280;51013;42.630;23.192;2022-10-31T00:32:33;92491.25;;;5.88;83.64
64602;BME280;51013;42.630;23.192;2022-10-31T00:35:01;92876.09;;;8.60;83.60
64602;BME280;51013;42.630;23.192;2022-10-31T00:37:43;92461.97;;;5.91;83.05
64602;BME280;51013;42.630;23.192;2022-10-31T00:40:11;92498.41;;;6.05;82.86
64602;BME280;51013;42.630;23.192;2022-10-31T00:42:39;92527.38;;;6.03;83.30
64602;BME280;51013;42.630;23.192;2022-10-31T00:45:07;92760.19;;;7.55;84.12
64602;BME280;51013;42.630;23.192;2022-10-31T00:47:35;92512.78;;;6.02;83.66
64602;BME280;51013;42.630;23.192;2022-10-31T00:50:02;92501.69;;;5.88;83.57
64602;BME280;51013;42.630;23.192;2022-10-31T00:52:30;92499.63;;;5.98;83.78
64602;BME280;51013;42.630;23.192;2022-10-31T00:54:59;92451.03;;;5.62;83.65
64602;BME280;51013;42.630;23.192;2022-10-31T00:57:26;92491.72;;;5.90;83.64
64602;BME280;51013;42.630;23.192;2022-10-31T00:59:54;92769.28;;;7.75;83.64
64602;BME280;51013;42.630;23.192;2022-10-31T01:02:21;92497.66;;;5.73;83.89
64602;BME280;51013;42.630;23.192;2022-10-31T01:04:48;92510.56;;;5.78;84.32
64602;BME280;51013;42.630;23.192;2022-10-31T01:07:16;92407.56;;;5.00;84.32
64602;BME280;51013;42.630;23.192;2022-10-31T01:09:46;92491.44;;;5.51;84.63
64602;BME280;51013;42.630;23.192;2022-10-31T01:12:18;92518.03;;;5.62;85.15
64602;BME280;51013;42.630;23.192;2022-10-31T01:14:47;92507.13;;;5.60;84.79
64602;BME280;51013;42.630;23.192;2022-10-31T01:17:15;92510.06;;;5.67;84.59
64602;BME280;51013;42.630;23.192;2022-10-31T01:19:42;92506.19;;;5.56;84.36
64602;BME280;51013;42.630;23.192;2022-10-31T01:22:11;92495.16;;;5.59;84.69
64602;BME280;51013;42.630;23.192;2022-10-31T01:24:38;92525.28;;;5.74;84.22
64602;BME280;51013;42.630;23.192;2022-10-31T01:27:05;92528.03;;;5.77;84.00
64602;BME280;51013;42.630;23.192;2022-10-31T01:29:34;92709.72;;;7.02;85.25
64602;BME280;51013;42.630;23.192;2022-10-31T01:32:01;92500.63;;;5.49;85.93
64602;BME280;51013;42.630;23.192;2022-10-31T01:34:29;92482.19;;;5.36;86.51
64602;BME280;51013;42.630;23.192;2022-10-31T01:36:56;92882.09;;;8.08;86.29
64602;BME280;51013;42.630;23.192;2022-10-31T01:39:24;92489.00;;;5.55;85.82
64602;BME280;51013;42.630;23.192;2022-10-31T01:41:53;92484.91;;;5.62;85.82
64602;BME280;51013;42.630;23.192;2022-10-31T01:44:52;92879.16;;;8.18;86.09
64602;BME280;51013;42.630;23.192;2022-10-31T01:47:33;92480.59;;;5.58;85.67
64602;BME280;51013;42.630;23.192;2022-10-31T01:50:06;92460.06;;;5.56;85.94
64602;BME280;51013;42.630;23.192;2022-10-31T01:52:38;92477.81;;;5.54;86.34
64602;BME280;51013;42.630;23.192;2022-10-31T01:55:10;92484.34;;;5.74;86.16
64602;BME280;51013;42.630;23.192;2022-10-31T01:57:42;92717.75;;;7.40;85.96
64602;BME280;51013;42.630;23.192;2022-10-31T02:00:14;92514.97;;;6.09;85.56
64602;BME280;51013;42.630;23.192;2022-10-31T02:02:42;92716.53;;;7.55;85.70
64602;BME280;51013;42.630;23.192;2022-10-31T02:05:17;92510.69;;;6.13;85.73
64602;BME280;51013;42.630;23.192;2022-10-31T02:07:50;92467.66;;;5.93;85.49
64602;BME280;51013;42.630;23.192;2022-10-31T02:10:21;92493.97;;;6.14;85.65
64602;BME280;51013;42.630;23.192;2022-10-31T02:12:50;92487.97;;;6.22;85.54
64602;BME280;51013;42.630;23.192;2022-10-31T02:15:20;92483.09;;;6.20;85.73
64602;BME280;51013;42.630;23.192;2022-10-31T02:17:48;92510.72;;;6.39;85.98
64602;BME280;51013;42.630;23.192;2022-10-31T02:20:18;92720.81;;;7.86;85.98
64602;BME280;51013;42.630;23.192;2022-10-31T02:26:05;92468.19;;;6.21;86.50
64602;BME280;51013;42.630;23.192;2022-10-31T02:28:51;92502.91;;;6.39;86.52
64602;BME280;51013;42.630;23.192;2022-10-31T02:31:33;92737.56;;;7.94;86.88
64602;BME280;51013;42.630;23.192;2022-10-31T02:34:07;92607.38;;;7.26;86.71
64602;BME280;51013;42.630;23.192;2022-10-31T02:36:43;92479.72;;;6.29;86.80
64602;BME280;51013;42.630;23.192;2022-10-31T02:39:21;92484.34;;;6.49;86.24
64602;BME280;51013;42.630;23.192;2022-10-31T02:41:54;92506.59;;;6.64;86.20
64602;BME280;51013;42.630;23.192;2022-10-31T02:44:38;92503.03;;;6.42;86.35
64602;BME280;51013;42.630;23.192;2022-10-31T02:47:11;92540.06;;;6.62;86.55
64602;BME280;51013;42.630;23.192;2022-10-31T02:49:45;92505.19;;;6.40;86.22
64602;BME280;51013;42.630;23.192;2022-10-31T02:52:20;92494.75;;;6.40;86.93
64602;BME280;51013;42.630;23.192;2022-10-31T02:54:49;92503.19;;;6.55;86.31
64602;BME280;51013;42.630;23.192;2022-10-31T02:57:19;92504.28;;;6.54;86.56
64602;BME280;51013;42.630;23.192;2022-10-31T02:59:50;92508.28;;;6.60;86.09
64602;BME280;51013;42.630;23.192;2022-10-31T03:02:37;92501.84;;;6.66;86.13
64602;BME280;51013;42.630;23.192;2022-10-31T03:05:32;92520.09;;;6.75;85.81
64602;BME280;51013;42.630;23.192;2022-10-31T03:08:12;92855.34;;;9.02;85.97
64602;BME280;51013;42.630;23.192;2022-10-31T03:10:43;92490.63;;;6.57;85.93
64602;BME280;51013;42.630;23.192;2022-10-31T03:13:19;92745.88;;;8.13;86.81
64602;BME280;51013;42.630;23.192;2022-10-31T03:15:50;92641.00;;;7.54;86.41
64602;BME280;51013;42.630;23.192;2022-10-31T03:18:23;92518.25;;;6.67;86.15
64602;BME280;51013;42.630;23.192;2022-10-31T03:20:58;92516.56;;;6.62;86.48
64602;BME280;51013;42.630;23.192;2022-10-31T03:23:28;92797.53;;;8.60;86.54
64602;BME280;51013;42.630;23.192;2022-10-31T03:25:58;92525.19;;;6.71;86.12
64602;BME280;51013;42.630;23.192;2022-10-31T03:28:30;92753.09;;;8.16;86.06
64602;BME280;51013;42.630;23.192;2022-10-31T03:30:58;92655.91;;;7.62;85.94
64602;BME280;51013;42.630;23.192;2022-10-31T03:33:31;92573.72;;;6.90;85.95
64602;BME280;51013;42.630;23.192;2022-10-31T03:36:02;92751.69;;;8.19;86.05
64602;BME280;51013;42.630;23.192;2022-10-31T03:38:32;92674.84;;;7.59;85.90
64602;BME280;51013;42.630;23.192;2022-10-31T03:41:02;92534.09;;;6.61;85.63
64602;BME280;51013;42.630;23.192;2022-10-31T03:43:33;92542.84;;;6.57;85.94
64602;BME280;51013;42.630;23.192;2022-10-31T03:46:03;92642.25;;;7.30;85.83
64602;BME280;51013;42.630;23.192;2022-10-31T03:48:33;92744.81;;;7.97;86.15
64602;BME280;51013;42.630;23.192;2022-10-31T03:51:06;92543.91;;;6.56;86.16
64602;BME280;51013;42.630;23.192;2022-10-31T03:53:39;92547.72;;;6.58;86.10
64602;BME280;51013;42.630;23.192;2022-10-31T03:56:12;92553.59;;;6.64;86.51
64602;BME280;51013;42.630;23.192;2022-10-31T03:58:45;92795.25;;;8.15;86.82
64602;BME280;51013;42.630;23.192;2022-10-31T04:01:18;92525.75;;;6.51;86.61
64602;BME280;51013;42.630;23.192;2022-10-31T04:03:49;92757.41;;;8.12;86.67
64602;BME280;51013;42.630;23.192;2022-10-31T04:06:18;92929.63;;;9.15;86.65
64602;BME280;51013;42.630;23.192;2022-10-31T04:08:52;92919.28;;;9.18;86.45
64602;BME280;51013;42.630;23.192;2022-10-31T04:11:24;92646.56;;;7.26;85.90
64602;BME280;51013;42.630;23.192;2022-10-31T04:13:55;92563.72;;;6.74;85.94
64602;BME280;51013;42.630;23.192;2022-10-31T04:16:24;92549.59;;;6.67;86.13
64602;BME280;51013;42.630;23.192;2022-10-31T04:18:54;92557.91;;;6.77;86.28
64602;BME280;51013;42.630;23.192;2022-10-31T04:21:26;92773.41;;;8.11;86.81
64602;BME280;51013;42.630;23.192;2022-10-31T04:23:55;92538.53;;;6.52;87.22
64602;BME280;51013;42.630;23.192;2022-10-31T04:26:22;92779.72;;;8.18;87.57
64602;BME280;51013;42.630;23.192;2022-10-31T04:28:49;92549.13;;;6.56;87.37
64602;BME280;51013;42.630;23.192;2022-10-31T04:31:18;92782.19;;;8.15;88.04
64602;BME280;51013;42.630;23.192;2022-10-31T04:33:45;92556.81;;;6.78;88.21
64602;BME280;51013;42.630;23.192;2022-10-31T04:36:13;92535.16;;;6.60;87.93
64602;BME280;51013;42.630;23.192;2022-10-31T04:38:40;92586.91;;;6.85;89.07
64602;BME280;51013;42.630;23.192;2022-10-31T04:41:07;92533.47;;;6.65;89.17
64602;BME280;51013;42.630;23.192;2022-10-31T04:43:34;92584.94;;;6.90;89.31
64602;BME280;51013;42.630;23.192;2022-10-31T04:46:02;92543.91;;;6.65;89.25
64602;BME280;51013;42.630;23.192;2022-10-31T04:48:29;92654.53;;;7.56;89.03
64602;BME280;51013;42.630;23.192;2022-10-31T04:50:59;92703.25;;;7.95;88.95
64602;BME280;51013;42.630;23.192;2022-10-31T04:53:27;92576.31;;;6.98;88.94
64602;BME280;51013;42.630;23.192;2022-10-31T04:55:57;92766.75;;;8.39;88.72
64602;BME280;51013;42.630;23.192;2022-10-31T04:58:24;92913.22;;;9.35;88.92
64602;BME280;51013;42.630;23.192;2022-10-31T05:00:52;92931.03;;;9.51;88.67
64602;BME280;51013;42.630;23.192;2022-10-31T05:07:18;92594.63;;;6.98;89.55
64602;BME280;51013;42.630;23.192;2022-10-31T05:09:50;92562.97;;;6.82;90.02
64602;BME280;51013;42.630;23.192;2022-10-31T07:38:55;92659.91;;;10.68;80.49
64602;BME280;51013;42.630;23.192;2022-10-31T07:41:23;92643.50;;;10.71;80.79
64602;BME280;51013;42.630;23.192;2022-10-31T07:43:51;92647.72;;;11.00;78.67
64602;BME280;51013;42.630;23.192;2022-10-31T07:46:18;92788.59;;;12.15;77.65
64602;BME280;51013;42.630;23.192;2022-10-31T07:48:45;92904.28;;;13.05;77.09
64602;BME280;51013;42.630;23.192;2022-10-31T07:51:12;92691.25;;;11.91;75.98
64602;BME280;51013;42.630;23.192;2022-10-31T07:53:38;92763.78;;;12.60;74.32
64602;BME280;51013;42.630;23.192;2022-10-31T07:56:07;92840.84;;;13.30;74.10
64602;BME280;51013;42.630;23.192;2022-10-31T07:58:34;92993.50;;;14.39;74.66
64602;BME280;51013;42.630;23.192;2022-10-31T08:01:01;92931.84;;;14.15;73.17
64602;BME280;51013;42.630;23.192;2022-10-31T08:03:28;92975.16;;;14.62;71.36
64602;BME280;51013;42.630;23.192;2022-10-31T08:05:56;92988.47;;;14.85;71.73
64602;BME280;51013;42.630;23.192;2022-10-31T08:08:23;92988.84;;;15.03;69.62
64602;BME280;51013;42.630;23.192;2022-10-31T08:10:53;92802.88;;;13.86;70.05
64602;BME280;51013;42.630;23.192;2022-10-31T08:13:21;92804.72;;;14.01;69.76
64602;BME280;51013;42.630;23.192;2022-10-31T08:15:48;92805.44;;;14.17;68.30
64602;BME280;51013;42.630;23.192;2022-10-31T08:18:17;92724.56;;;13.74;67.61
64602;BME280;51013;42.630;23.192;2022-10-31T08:20:44;92818.50;;;14.49;67.56
64602;BME280;51013;42.630;23.192;2022-10-31T08:23:12;92752.44;;;14.10;67.82
64602;BME280;51013;42.630;23.192;2022-10-31T08:25:39;92711.38;;;13.93;67.28
64602;BME280;51013;42.630;23.192;2022-10-31T08:28:09;92882.91;;;15.19;66.08
64602;BME280;51013;42.630;23.192;2022-10-31T08:30:38;92711.44;;;14.16;66.16
64602;BME280;51013;42.630;23.192;2022-10-31T08:33:09;92712.25;;;14.20;65.88
64602;BME280;51013;42.630;23.192;2022-10-31T08:35:36;92760.50;;;14.56;65.06
64602;BME280;51013;42.630;23.192;2022-10-31T08:38:03;92990.81;;;16.14;65.15
64602;BME280;51013;42.630;23.192;2022-10-31T08:40:32;93002.00;;;16.27;64.82
64602;BME280;51013;42.630;23.192;2022-10-31T08:43:02;92827.97;;;15.12;64.34
64602;BME280;51013;42.630;23.192;2022-10-31T08:45:36;92815.94;;;15.15;63.67
64602;BME280;51013;42.630;23.192;2022-10-31T08:48:06;92888.00;;;15.74;63.27
64602;BME280;51013;42.630;23.192;2022-10-31T08:50:35;92913.22;;;15.91;63.68
64602;BME280;51013;42.630;23.192;2022-10-31T08:53:03;92998.72;;;16.64;63.13
64602;BME280;51013;42.630;23.192;2022-10-31T08:55:30;92727.84;;;14.91;62.67
64602;BME280;51013;42.630;23.192;2022-10-31T08:57:58;92851.25;;;15.72;63.75
64602;BME280;51013;42.630;23.192;2022-10-31T09:00:25;92727.66;;;15.03;62.54
64602;BME280;51013;42.630;23.192;2022-10-31T09:02:56;92799.28;;;15.64;62.14
64602;BME280;51013;42.630;23.192;2022-10-31T09:05:26;92991.91;;;16.90;61.06
64602;BME280;51013;42.630;23.192;2022-10-31T09:07:55;92904.44;;;16.40;60.60
64602;BME280;51013;42.630;23.192;2022-10-31T09:10:24;92887.44;;;16.41;60.67
64602;BME280;51013;42.630;23.192;2022-10-31T09:12:55;92843.44;;;16.10;60.11
64602;BME280;51013;42.630;23.192;2022-10-31T09:15:22;92746.66;;;15.62;61.08
64602;BME280;51013;42.630;23.192;2022-10-31T09:17:49;93003.13;;;17.40;60.51
64602;BME280;51013;42.630;23.192;2022-10-31T09:20:16;93016.16;;;17.52;60.57
64602;BME280;51013;42.630;23.192;2022-10-31T09:22:45;92887.09;;;16.76;60.14
64602;BME280;51013;42.630;23.192;2022-10-31T09:25:12;92941.00;;;17.14;59.27
64602;BME280;51013;42.630;23.192;2022-10-31T09:27:39;92686.13;;;15.61;58.37
64602;BME280;51013;42.630;23.192;2022-10-31T09:30:06;92998.94;;;17.76;58.38
64602;BME280;51013;42.630;23.192;2022-10-31T09:32:33;93002.13;;;17.89;58.27
64602;BME280;51013;42.630;23.192;2022-10-31T09:35:00;92686.13;;;15.88;57.54
64602;BME280;51013;42.630;23.192;2022-10-31T09:37:33;92822.78;;;16.87;57.12
64602;BME280;51013;42.630;23.192;2022-10-31T09:40:05;92996.66;;;18.16;57.08
64602;BME280;51013;42.630;23.192;2022-10-31T09:42:55;92760.41;;;16.66;56.56
64602;BME280;51013;42.630;23.192;2022-10-31T09:45:32;92927.69;;;17.89;56.47
64602;BME280;51013;42.630;23.192;2022-10-31T09:48:23;92690.53;;;16.48;56.23
64602;BME280;51013;42.630;23.192;2022-10-31T09:50:56;92990.16;;;18.65;55.63
64602;BME280;51013;42.630;23.192;2022-10-31T09:53:29;93002.34;;;18.73;55.49
64602;BME280;51013;42.630;23.192;2022-10-31T09:56:05;92871.22;;;18.03;54.17
64602;BME280;51013;42.630;23.192;2022-10-31T09:58:39;92799.97;;;17.64;54.25
64602;BME280;51013;42.630;23.192;2022-10-31T10:01:25;92698.59;;;17.03;53.00
64602;BME280;51013;42.630;23.192;2022-10-31T10:03:58;92761.38;;;17.29;53.25
64602;BME280;51013;42.630;23.192;2022-10-31T10:06:29;92816.13;;;17.96;53.80
64602;BME280;51013;42.630;23.192;2022-10-31T10:09:01;92725.47;;;17.46;52.49
64602;BME280;51013;42.630;23.192;2022-10-31T10:11:40;92970.28;;;19.14;52.72
64602;BME280;51013;42.630;23.192;2022-10-31T10:14:22;92755.25;;;17.77;52.12
64602;BME280;51013;42.630;23.192;2022-10-31T10:17:08;92984.88;;;19.53;52.39
64602;BME280;51013;42.630;23.192;2022-10-31T10:19:54;92975.75;;;19.61;51.38
64602;BME280;51013;42.630;23.192;2022-10-31T10:22:31;92869.44;;;19.09;51.55
64602;BME280;51013;42.630;23.192;2022-10-31T10:25:14;92865.31;;;19.26;51.20
64602;BME280;51013;42.630;23.192;2022-10-31T10:27:50;92852.75;;;19.23;49.87
64602;BME280;51013;42.630;23.192;2022-10-31T10:30:22;92708.78;;;18.37;49.18
64602;BME280;51013;42.630;23.192;2022-10-31T10:32:51;92813.16;;;19.07;48.84
64602;BME280;51013;42.630;23.192;2022-10-31T10:35:25;92970.88;;;20.35;49.51
64602;BME280;51013;42.630;23.192;2022-10-31T10:37:57;92949.19;;;20.26;50.46
64602;BME280;51013;42.630;23.192;2022-10-31T10:40:27;92660.56;;;18.42;48.62
64602;BME280;51013;42.630;23.192;2022-10-31T10:43:01;92789.59;;;19.45;48.16
64602;BME280;51013;42.630;23.192;2022-10-31T10:46:04;92866.13;;;19.95;47.20
64602;BME280;51013;42.630;23.192;2022-10-31T10:48:54;92839.88;;;19.72;47.81
64602;BME280;51013;42.630;23.192;2022-10-31T10:51:28;92771.72;;;19.49;47.12
64602;BME280;51013;42.630;23.192;2022-10-31T10:54:13;92675.09;;;18.88;46.76
64602;BME280;51013;42.630;23.192;2022-10-31T10:56:54;92963.94;;;20.91;45.63
64602;BME280;51013;42.630;23.192;2022-10-31T10:59:26;92933.81;;;20.87;46.12
64602;BME280;51013;42.630;23.192;2022-10-31T11:01:54;92811.22;;;20.19;45.46
64602;BME280;51013;42.630;23.192;2022-10-31T11:04:28;92686.06;;;19.54;45.20
64602;BME280;51013;42.630;23.192;2022-10-31T11:07:00;92850.28;;;20.87;44.31
64602;BME280;51013;42.630;23.192;2022-10-31T11:09:28;92956.78;;;21.66;44.39
64602;BME280;51013;42.630;23.192;2022-10-31T11:11:55;92807.28;;;20.63;43.10
64602;BME280;51013;42.630;23.192;2022-10-31T11:14:23;92657.84;;;19.86;43.44
64602;BME280;51013;42.630;23.192;2022-10-31T11:16:55;92824.66;;;21.00;41.90
64602;BME280;51013;42.630;23.192;2022-10-31T11:19:25;92646.75;;;19.94;42.43
64602;BME280;51013;42.630;23.192;2022-10-31T11:21:53;92939.78;;;21.94;44.56
64602;BME280;51013;42.630;23.192;2022-10-31T11:24:22;92921.81;;;21.94;41.89
64602;BME280;51013;42.630;23.192;2022-10-31T11:26:51;92943.84;;;22.13;42.16
64602;BME280;51013;42.630;23.192;2022-10-31T11:29:21;92930.00;;;22.21;42.80
64602;BME280;51013;42.630;23.192;2022-10-31T11:31:53;92743.31;;;21.12;41.89
64602;BME280;51013;42.630;23.192;2022-10-31T11:34:27;92918.84;;;22.34;41.27
64602;BME280;51013;42.630;23.192;2022-10-31T11:37:03;92822.28;;;21.72;41.46
64602;BME280;51013;42.630;23.192;2022-10-31T11:39:32;92910.06;;;22.33;42.73
64602;BME280;51013;42.630;23.192;2022-10-31T11:42:03;92920.22;;;22.53;40.81
64602;BME280;51013;42.630;23.192;2022-10-31T11:44:35;92743.09;;;21.44;40.93
64602;BME280;51013;42.630;23.192;2022-10-31T11:47:05;92857.03;;;22.17;40.52
64602;BME280;51013;42.630;23.192;2022-10-31T11:49:39;92922.63;;;22.78;41.13
64602;BME280;51013;42.630;23.192;2022-10-31T11:52:08;92897.44;;;22.72;39.89
64602;BME280;51013;42.630;23.192;2022-10-31T11:54:44;92908.16;;;22.72;40.00
64602;BME280;51013;42.630;23.192;2022-10-31T11:57:23;92716.50;;;21.71;40.33
64602;BME280;51013;42.630;23.192;2022-10-31T11:59:52;92683.47;;;21.51;39.67
64602;BME280;51013;42.630;23.192;2022-10-31T12:02:21;92667.50;;;21.44;39.16
64602;BME280;51013;42.630;23.192;2022-10-31T12:04:55;92631.72;;;21.30;39.67
64602;BME280;51013;42.630;23.192;2022-10-31T12:07:23;92820.63;;;22.65;40.01
64602;BME280;51013;42.630;23.192;2022-10-31T12:09:50;92612.28;;;21.30;39.79
64602;BME280;51013;42.630;23.192;2022-10-31T12:15:29;92624.03;;;21.36;38.98
64602;BME280;51013;42.630;23.192;2022-10-31T12:20:55;92916.91;;;22.76;40.04
64602;BME280;51013;42.630;23.192;2022-10-31T12:23:33;92641.00;;;20.70;40.07
64602;BME280;51013;42.630;23.192;2022-10-31T12:26:11;92761.06;;;21.44;41.07
64602;BME280;51013;42.630;23.192;2022-10-31T12:28:58;92725.00;;;21.10;40.74
64602;BME280;51013;42.630;23.192;2022-10-31T12:31:41;92717.94;;;20.82;41.72
64602;BME280;51013;42.630;23.192;2022-10-31T12:34:40;92844.25;;;21.49;42.32
64602;BME280;51013;42.630;23.192;2022-10-31T12:37:18;92736.69;;;20.75;42.16
64602;BME280;51013;42.630;23.192;2022-10-31T12:39:59;92839.72;;;21.35;42.83
64602;BME280;51013;42.630;23.192;2022-10-31T12:42:35;92915.41;;;21.81;42.80
64602;BME280;51013;42.630;23.192;2022-10-31T12:45:25;92842.13;;;21.19;43.30
64602;BME280;51013;42.630;23.192;2022-10-31T12:51:06;92929.63;;;21.71;43.38
64602;BME280;51013;42.630;23.192;2022-10-31T12:53:50;92727.28;;;20.45;44.70
64602;BME280;51013;42.630;23.192;2022-10-31T12:56:30;92722.06;;;20.24;43.45
64602;BME280;51013;42.630;23.192;2022-10-31T12:59:08;92729.31;;;20.19;44.45
64602;BME280;51013;42.630;23.192;2022-10-31T13:01:41;92916.81;;;21.44;44.53
64602;BME280;51013;42.630;23.192;2022-10-31T13:04:16;92687.94;;;19.79;45.07
64602;BME280;51013;42.630;23.192;2022-10-31T13:06:48;92798.91;;;20.54;45.44
64602;BME280;51013;42.630;23.192;2022-10-31T13:09:19;92613.44;;;19.32;46.34
64602;BME280;51013;42.630;23.192;2022-10-31T13:11:51;92919.53;;;21.30;46.44
64602;BME280;51013;42.630;23.192;2022-10-31T13:14:23;92897.09;;;21.13;46.68
64602;BME280;51013;42.630;23.192;2022-10-31T13:16:53;92917.25;;;21.25;46.65
64602;BME280;51013;42.630;23.192;2022-10-31T13:19:25;92734.31;;;20.03;47.46
64602;BME280;51013;42.630;23.192;2022-10-31T13:21:59;92894.81;;;21.08;48.03
64602;BME280;51013;42.630;23.192;2022-10-31T13:24:33;92731.31;;;19.87;48.26
64602;BME280;51013;42.630;23.192;2022-10-31T13:27:10;92917.31;;;21.14;48.36
64602;BME280;51013;42.630;23.192;2022-10-31T13:29:44;92906.97;;;21.23;49.09
64602;BME280;51013;42.630;23.192;2022-10-31T13:32:14;92804.53;;;20.85;48.99
64602;BME280;51013;42.630;23.192;2022-10-31T13:34:45;92615.97;;;19.75;48.94
64602;BME280;51013;42.630;23.192;2022-10-31T13:37:28;92848.44;;;21.47;46.64
64602;BME280;51013;42.630;23.192;2022-10-31T13:40:14;92726.75;;;20.83;46.43
64602;BME280;51013;42.630;23.192;2022-10-31T13:42:54;92750.13;;;21.20;47.92
64602;BME280;51013;42.630;23.192;2022-10-31T13:45:25;92727.63;;;21.21;44.45
64602;BME280;51013;42.630;23.192;2022-10-31T13:47:57;92659.91;;;20.93;45.77
64602;BME280;51013;42.630;23.192;2022-10-31T13:50:25;92657.50;;;21.06;45.68
64602;BME280;51013;42.630;23.192;2022-10-31T13:53:10;92781.91;;;22.01;44.99
64602;BME280;51013;42.630;23.192;2022-10-31T13:55:41;92797.75;;;22.23;44.46
64602;BME280;51013;42.630;23.192;2022-10-31T13:58:23;92705.66;;;21.86;43.17
64602;BME280;51013;42.630;23.192;2022-10-31T14:01:14;92911.22;;;23.35;41.34
64602;BME280;51013;42.630;23.192;2022-10-31T14:03:45;92810.47;;;22.84;41.20
64602;BME280;51013;42.630;23.192;2022-10-31T14:06:14;92906.03;;;23.52;38.98
64602;BME280;51013;42.630;23.192;2022-10-31T14:08:49;92912.09;;;23.56;40.46
64602;BME280;51013;42.630;23.192;2022-10-31T14:11:22;92723.63;;;22.19;39.16
64602;BME280;51013;42.630;23.192;2022-10-31T14:13:52;92793.75;;;22.72;39.34
64602;BME280;51013;42.630;23.192;2022-10-31T14:16:23;92855.69;;;23.09;39.59
64602;BME280;51013;42.630;23.192;2022-10-31T14:18:58;92905.13;;;23.35;39.45
64602;BME280;51013;42.630;23.192;2022-10-31T14:21:30;92624.88;;;21.29;40.09
64602;BME280;51013;42.630;23.192;2022-10-31T14:24:00;92729.28;;;21.91;41.01
64602;BME280;51013;42.630;23.192;2022-10-31T14:26:34;92556.81;;;20.61;41.32
64602;BME280;51013;42.630;23.192;2022-10-31T14:29:23;92932.81;;;22.90;41.59
64602;BME280;51013;42.630;23.192;2022-10-31T14:32:04;92907.28;;;22.78;41.76
64602;BME280;51013;42.630;23.192;2022-10-31T14:34:39;92851.66;;;22.25;42.28
64602;BME280;51013;42.630;23.192;2022-10-31T14:37:25;92910.66;;;22.48;43.42
64602;BME280;51013;42.630;23.192;2022-10-31T14:43:10;92918.28;;;22.08;43.83
64602;BME280;51013;42.630;23.192;2022-10-31T14:45:47;92726.03;;;20.68;44.39
64602;BME280;51013;42.630;23.192;2022-10-31T14:51:48;92904.16;;;21.52;44.46
64602;BME280;51013;42.630;23.192;2022-10-31T14:54:25;92801.50;;;20.75;44.50
64602;BME280;51013;42.630;23.192;2022-10-31T14:57:01;92811.09;;;20.66;45.11
64602;BME280;51013;42.630;23.192;2022-10-31T14:59:33;92800.88;;;20.46;45.30
64602;BME280;51013;42.630;23.192;2022-10-31T15:02:09;92667.44;;;19.44;46.42
64602;BME280;51013;42.630;23.192;2022-10-31T15:04:38;92594.47;;;18.76;47.07
64602;BME280;51013;42.630;23.192;2022-10-31T15:07:10;92793.38;;;19.98;48.91
64602;BME280;51013;42.630;23.192;2022-10-31T15:09:39;92705.91;;;19.10;49.01
64602;BME280;51013;42.630;23.192;2022-10-31T15:12:23;92890.09;;;20.24;49.27
64602;BME280;51013;42.630;23.192;2022-10-31T15:14:51;92795.28;;;19.40;50.83
64602;BME280;51013;42.630;23.192;2022-10-31T15:17:18;92828.44;;;19.42;50.96
64602;BME280;51013;42.630;23.192;2022-10-31T15:19:46;92726.00;;;18.68;51.38
64602;BME280;51013;42.630;23.192;2022-10-31T15:22:15;92913.72;;;19.78;51.74
64602;BME280;51013;42.630;23.192;2022-10-31T15:24:43;92791.03;;;18.81;51.78
64602;BME280;51013;42.630;23.192;2022-10-31T15:27:14;92582.28;;;17.16;52.23
64602;BME280;51013;42.630;23.192;2022-10-31T15:29:50;92918.97;;;19.28;52.22
64602;BME280;51013;42.630;23.192;2022-10-31T15:32:19;92801.50;;;18.35;52.35
64602;BME280;51013;42.630;23.192;2022-10-31T15:34:49;92601.03;;;16.82;52.70
64602;BME280;51013;42.630;23.192;2022-10-31T15:37:18;92824.59;;;18.16;53.87
64602;BME280;51013;42.630;23.192;2022-10-31T15:39:49;92938.63;;;18.88;54.17
64602;BME280;51013;42.630;23.192;2022-10-31T15:42:20;92634.16;;;16.58;54.26
64602;BME280;51013;42.630;23.192;2022-10-31T15:44:51;92949.06;;;18.55;55.18
64602;BME280;51013;42.630;23.192;2022-10-31T15:47:21;92636.91;;;16.24;55.26
64602;BME280;51013;42.630;23.192;2022-10-31T15:49:51;92599.41;;;15.85;55.64
64602;BME280;51013;42.630;23.192;2022-10-31T15:52:26;92634.34;;;15.97;56.26
64602;BME280;51013;42.630;23.192;2022-10-31T15:55:00;92615.56;;;15.72;56.30
64602;BME280;51013;42.630;23.192;2022-10-31T15:57:32;92907.53;;;17.43;57.22
64602;BME280;51013;42.630;23.192;2022-10-31T16:00:04;92763.50;;;16.34;57.24
64602;BME280;51013;42.630;23.192;2022-10-31T16:02:36;92611.09;;;15.19;57.42
64602;BME280;51013;42.630;23.192;2022-10-31T16:05:16;92830.41;;;16.58;57.49
64602;BME280;51013;42.630;23.192;2022-10-31T16:07:49;92630.91;;;15.02;58.65
64602;BME280;51013;42.630;23.192;2022-10-31T16:10:26;92963.50;;;17.24;58.79
64602;BME280;51013;42.630;23.192;2022-10-31T16:12:54;92635.13;;;14.80;58.95
64602;BME280;51013;42.630;23.192;2022-10-31T16:15:26;92770.22;;;15.68;58.96